Time;durP1;ratioP1;P1;durP2;ratioP2;P2;SDS_P1;SDS_P2;PMS_P1;PMS_P2;Temp;Humidity;BMP_temperature;BMP_pressure;BME280_temperature;BME280_humidity;BME280_pressure;Samples;Min_cycle;Max_cycle;Signal;HPM_P1;HPM_P2
2022/01/19 00:00:48;;;;;;;122.07;41.38;;;4.40;99.90;;;;;;5126580;28;20078;-69
2022/01/19 00:03:15;;;;;;;111.07;39.83;;;5.50;99.90;;;;;;5129726;27;20054;-69
2022/01/19 00:05:42;;;;;;;110.75;39.92;;;5.40;99.90;;;;;;5115463;28;20035;-69
2022/01/19 00:08:09;;;;;;;115.50;39.08;;;5.00;99.90;;;;;;5109142;28;20514;-69
2022/01/19 00:10:34;;;;;;;108.95;38.35;;;4.70;99.90;;;;;;5108928;28;20043;-69
2022/01/19 00:13:00;;;;;;;127.00;39.92;;;5.10;99.90;;;;;;5109201;28;20407;-69
2022/01/19 00:15:28;;;;;;;119.43;39.22;;;4.90;99.90;;;;;;5092061;28;20130;-69
2022/01/19 00:17:57;;;;;;;114.32;38.80;;;4.80;99.90;;;;;;5110176;28;20044;-69
2022/01/19 00:20:24;;;;;;;117.85;38.05;;;4.80;99.90;;;;;;5113100;28;20050;-69
2022/01/19 00:22:50;;;;;;;126.05;40.10;;;5.60;99.90;;;;;;5129027;27;20482;-69
2022/01/19 00:25:17;;;;;;;112.70;38.35;;;4.80;99.90;;;;;;5116255;27;20398;-69
2022/01/19 00:27:47;;;;;;;116.30;39.22;;;4.50;99.90;;;;;;5133153;27;20043;-69
2022/01/19 00:30:14;;;;;;;106.18;39.15;;;4.90;99.90;;;;;;5132978;27;20129;-69
2022/01/19 00:32:41;;;;;;;117.15;38.45;;;5.00;99.90;;;;;;5132877;27;20042;-69
2022/01/19 00:35:09;;;;;;;112.20;38.40;;;5.30;99.90;;;;;;5133415;27;20504;-69
2022/01/19 00:37:35;;;;;;;109.80;37.83;;;5.10;99.90;;;;;;5132886;27;20051;-69
2022/01/19 00:40:02;;;;;;;119.75;38.53;;;5.00;99.90;;;;;;5133017;27;20126;-69
2022/01/19 00:42:28;;;;;;;98.25;37.33;;;;;;;;;;5133073;27;20094;-69
2022/01/19 00:44:54;;;;;;;107.63;37.17;;;5.10;99.90;;;;;;5116178;27;20495;-69
2022/01/19 00:47:20;;;;;;;99.25;35.10;;;4.90;99.90;;;;;;5133101;27;20126;-69
2022/01/19 00:49:45;;;;;;;99.95;33.78;;;4.30;99.90;;;;;;5133420;27;20391;-69
2022/01/19 00:52:12;;;;;;;93.05;32.45;;;4.90;99.90;;;;;;5121671;27;20044;-69
2022/01/19 00:54:39;;;;;;;89.95;32.38;;;5.00;99.90;;;;;;5095307;28;20051;-69
2022/01/19 00:57:05;;;;;;;87.32;32.65;;;5.10;99.90;;;;;;5112256;28;20380;-69
2022/01/19 00:59:32;;;;;;;89.75;32.03;;;;;;;;;;5112313;28;20116;-69
2022/01/19 01:01:57;;;;;;;94.70;32.80;;;4.80;99.90;;;;;;5112329;28;20051;-69
2022/01/19 01:04:23;;;;;;;92.03;33.08;;;;;;;;;;5112402;28;20476;-69
2022/01/19 01:06:49;;;;;;;84.25;32.30;;;5.60;99.90;;;;;;5112286;27;20079;-69
2022/01/19 01:09:16;;;;;;;86.80;32.38;;;;;;;;;;5111738;28;20559;-69
2022/01/19 01:11:59;;;;;;;84.93;31.70;;;5.00;99.90;;;;;;5094792;28;20059;-69
2022/01/19 01:19:58;;;;;;;75.60;28.02;;;4.30;99.90;;;;;;5080619;28;20139;-69
2022/01/19 01:22:24;;;;;;;78.53;29.25;;;3.90;99.90;;;;;;5111190;27;20121;-69
2022/01/19 01:24:50;;;;;;;84.05;30.00;;;4.00;99.90;;;;;;5114873;27;20119;-69
2022/01/19 01:27:16;;;;;;;78.90;31.40;;;;;;;;;;5132092;27;20473;-69
2022/01/19 01:29:41;;;;;;;88.07;31.98;;;4.00;99.90;;;;;;5131428;27;20049;-69
2022/01/19 01:32:08;;;;;;;90.32;32.08;;;4.00;99.90;;;;;;5132181;27;20130;-69
2022/01/19 01:34:34;;;;;;;84.57;30.52;;;3.90;99.90;;;;;;5132269;27;20058;-69
2022/01/19 01:36:59;;;;;;;98.90;30.35;;;4.50;99.90;;;;;;5131722;27;20509;-69
2022/01/19 01:39:25;;;;;;;98.82;31.92;;;3.70;99.90;;;;;;5128378;27;20032;-69
2022/01/19 01:41:51;;;;;;;104.85;32.67;;;;;;;;;;5112744;27;20043;-69
2022/01/19 01:44:17;;;;;;;103.22;33.10;;;4.30;99.90;;;;;;5111562;28;20047;-69
2022/01/19 01:49:16;;;;;;;100.00;30.90;;;;;;;;;;5111495;28;20142;-69
2022/01/19 01:54:27;;;;;;;95.32;31.98;;;3.50;99.90;;;;;;5111123;28;20096;-69
2022/01/19 01:56:56;;;;;;;100.90;31.50;;;3.90;99.90;;;;;;5111206;28;20434;-69
2022/01/19 01:59:22;;;;;;;101.90;33.10;;;;;;;;;;5091715;28;20035;-69
2022/01/19 02:01:47;;;;;;;113.72;35.08;;;3.50;99.90;;;;;;5111145;28;20555;-69
2022/01/19 02:04:13;;;;;;;112.72;36.33;;;3.50;99.90;;;;;;5110577;28;20075;-69
2022/01/19 02:09:22;;;;;;;96.25;32.65;;;2.80;99.90;;;;;;5111228;27;20090;-69
2022/01/19 02:21:38;;;;;;;124.18;37.67;;;3.40;99.90;;;;;;5090153;28;20048;-69
2022/01/19 02:23:24;;;;;;;154.57;42.55;;;3.30;99.90;;;;;;5089918;28;20036;-69
2022/01/19 02:25:52;;;;;;;144.85;40.63;;;3.30;99.90;;;;;;5125531;27;20388;-69
2022/01/19 02:31:36;;;;;;;170.57;42.45;;;;;;;;;;5130748;27;20078;-69
2022/01/19 02:41:49;;;;;;;173.23;41.70;;;3.00;99.90;;;;;;5130524;27;20115;-69
2022/01/19 02:44:34;;;;;;;190.63;43.20;;;2.90;99.90;;;;;;5130653;27;20039;-69
2022/01/19 02:49:50;;;;;;;139.00;40.25;;;2.90;99.90;;;;;;5113796;27;20059;-69
2022/01/19 02:52:17;;;;;;;148.15;38.47;;;2.90;99.90;;;;;;5110327;28;20055;-68
2022/01/19 02:54:43;;;;;;;209.20;44.05;;;;;;;;;;5110645;28;20611;-68
2022/01/19 02:57:12;;;;;;;167.30;41.60;;;3.20;99.90;;;;;;5109724;28;20123;-69
2022/01/19 03:10:39;;;;;;;211.13;42.78;;;2.70;99.90;;;;;;5110005;28;20100;-69
2022/01/19 03:13:05;;;;;;;390.60;51.13;;;2.60;99.90;;;;;;5110106;28;20052;-69
2022/01/19 03:15:30;;;;;;;444.05;46.75;;;2.70;99.90;;;;;;5127062;27;20483;-69
2022/01/19 03:17:59;;;;;;;444.35;54.75;;;;;;;;;;5102880;28;20462;-69
2022/01/19 03:20:27;;;;;;;224.95;38.85;;;2.60;99.90;;;;;;5089250;28;20085;-69
2022/01/19 03:23:03;;;;;;;319.55;44.88;;;2.70;99.90;;;;;;5088996;28;20093;-69
2022/01/19 03:25:29;;;;;;;674.10;55.47;;;;;;;;;;5089788;28;20062;-69
2022/01/19 03:27:55;;;;;;;832.97;60.63;;;2.80;99.90;;;;;;5088917;28;20761;-69
2022/01/19 03:30:22;;;;;;;916.95;69.25;;;2.60;99.90;;;;;;5088797;28;20131;-69
2022/01/19 03:32:48;;;;;;;1203.60;66.07;;;2.80;99.90;;;;;;5097569;28;20073;-69
2022/01/19 03:35:15;;;;;;;652.13;42.67;;;2.70;99.90;;;;;;5109543;28;20100;-69
2022/01/19 03:37:41;;;;;;;1062.38;66.97;;;3.50;99.90;;;;;;5109526;28;20148;-69
2022/01/19 03:40:08;;;;;;;838.13;50.63;;;2.70;99.90;;;;;;5109833;28;20039;-69
2022/01/19 03:42:34;;;;;;;831.28;46.75;;;2.50;99.90;;;;;;5109863;28;20832;-69
2022/01/19 03:45:01;;;;;;;892.05;51.10;;;2.50;99.90;;;;;;5110820;28;20035;-69
2022/01/19 03:47:27;;;;;;;880.83;57.70;;;;;;;;;;5110651;28;20051;-69
2022/01/19 03:49:55;;;;;;;551.53;35.58;;;1.90;99.90;;;;;;5110852;28;20048;-69
2022/01/19 03:52:21;;;;;;;856.40;42.53;;;;;;;;;;5126918;27;20047;-69
2022/01/19 03:54:47;;;;;;;742.97;41.90;;;;;;;;;;5113244;28;20126;-69
2022/01/19 03:57:13;;;;;;;528.65;31.50;;;2.60;99.90;;;;;;5113364;28;20047;-69
2022/01/19 03:59:39;;;;;;;731.65;46.28;;;;;;;;;;5113258;28;20551;-69
2022/01/19 04:02:06;;;;;;;581.35;30.98;;;2.40;99.90;;;;;;5126493;27;20492;-69
2022/01/19 04:04:40;;;;;;;714.45;41.70;;;2.20;99.90;;;;;;5135170;27;20532;-69
2022/01/19 04:09:38;;;;;;;408.92;32.40;;;2.10;99.90;;;;;;5133728;27;20047;-69
2022/01/19 04:12:06;;;;;;;287.13;33.25;;;2.00;99.90;;;;;;5135020;27;20438;-69
2022/01/19 04:14:33;;;;;;;518.15;39.50;;;2.20;99.90;;;;;;5133762;27;20122;-69
2022/01/19 04:17:05;;;;;;;572.28;39.55;;;2.20;99.90;;;;;;5119454;27;20130;-69
2022/01/19 04:19:43;;;;;;;748.45;47.33;;;2.20;99.90;;;;;;5114563;28;20094;-69
2022/01/19 04:22:11;;;;;;;332.83;35.55;;;3.10;99.90;;;;;;5114851;28;20047;-69
2022/01/19 04:24:37;;;;;;;470.20;34.40;;;2.70;99.90;;;;;;5114652;28;20046;-69
2022/01/19 04:29:49;;;;;;;528.97;37.15;;;2.30;99.90;;;;;;5113538;28;20126;-69
2022/01/19 04:32:20;;;;;;;192.35;29.08;;;2.20;99.90;;;;;;5132337;27;20047;-69
2022/01/19 04:34:48;;;;;;;240.35;30.42;;;;;;;;;;5135218;27;20043;-69
2022/01/19 05:01:59;;;;;;;102.95;20.33;;;1.70;99.90;;;;;;5051016;28;20147;-69
2022/01/19 05:04:34;;;;;;;107.63;19.38;;;1.70;99.90;;;;;;5049636;28;20132;-69
2022/01/19 05:07:52;;;;;;;324.55;23.90;;;;;;;;;;5050472;28;20587;-69
2022/01/19 05:15:09;;;;;;;246.93;24.48;;;;;;;;;;5053732;28;20318;-69
2022/01/19 05:17:36;;;;;;;113.35;20.67;;;1.60;99.90;;;;;;5070259;28;20087;-69
2022/01/19 05:20:07;;;;;;;553.85;32.08;;;1.50;99.90;;;;;;5069878;28;20045;-69
2022/01/19 05:22:33;;;;;;;338.95;25.33;;;;;;;;;;5088205;28;20130;-69
2022/01/19 05:25:00;;;;;;;253.23;24.00;;;;;;;;;;5093985;27;20036;-69
2022/01/19 05:27:26;;;;;;;173.77;21.10;;;1.60;99.90;;;;;;5132011;27;20043;-69
2022/01/19 05:29:52;;;;;;;455.75;28.80;;;1.40;99.90;;;;;;5133273;27;20051;-69
2022/01/19 05:32:17;;;;;;;294.27;27.45;;;1.60;99.90;;;;;;5133221;27;20180;-69
2022/01/19 05:34:44;;;;;;;209.52;21.10;;;;;;;;;;5133163;27;20516;-69
2022/01/19 05:37:09;;;;;;;121.03;23.48;;;1.60;99.90;;;;;;5131803;27;20043;-69
2022/01/19 05:39:35;;;;;;;194.88;25.20;;;;;;;;;;5133478;27;20087;-69
2022/01/19 05:42:02;;;;;;;229.40;23.75;;;;;;;;;;5133094;27;20051;-69
2022/01/19 05:44:28;;;;;;;330.92;30.27;;;;;;;;;;5131741;27;20046;-69
2022/01/19 05:46:53;;;;;;;286.30;28.38;;;1.70;99.90;;;;;;5131658;27;20055;-69
2022/01/19 05:49:19;;;;;;;283.10;27.15;;;1.60;99.90;;;;;;5132851;27;20387;-71
2022/01/19 05:51:45;;;;;;;268.48;27.17;;;1.60;99.90;;;;;;5131664;27;20062;-71
2022/01/19 05:54:11;;;;;;;280.52;28.75;;;1.50;99.90;;;;;;5131672;27;20122;-71
2022/01/19 05:56:37;;;;;;;273.42;26.90;;;1.60;99.90;;;;;;5118660;27;20047;-71
2022/01/19 05:59:02;;;;;;;335.42;27.17;;;1.40;99.90;;;;;;5112717;28;20398;-71
2022/01/19 06:01:29;;;;;;;242.00;23.70;;;;;;;;;;5112362;28;20550;-71
2022/01/19 06:03:55;;;;;;;199.55;22.25;;;;;;;;;;5111713;28;20397;-71
2022/01/19 06:06:21;;;;;;;344.58;26.20;;;1.40;99.90;;;;;;5112087;28;20635;-71
2022/01/19 06:08:58;;;;;;;228.43;28.15;;;1.40;99.90;;;;;;5111957;28;20407;-71
2022/01/19 06:11:24;;;;;;;294.23;32.15;;;1.30;99.90;;;;;;5111702;28;20089;-71
2022/01/19 06:13:51;;;;;;;330.38;28.98;;;;;;;;;;5127848;27;20573;-71
2022/01/19 06:16:16;;;;;;;282.73;32.00;;;1.30;99.90;;;;;;5132099;27;20047;-71
2022/01/19 06:18:42;;;;;;;303.63;32.72;;;1.20;99.90;;;;;;5112949;27;20373;-71
2022/01/19 06:21:09;;;;;;;177.18;29.05;;;1.40;99.90;;;;;;5111024;27;20055;-71
2022/01/19 06:23:36;;;;;;;261.77;32.50;;;1.20;99.90;;;;;;5109976;27;20071;-71
2022/01/19 06:26:05;;;;;;;121.28;27.45;;;1.20;99.90;;;;;;5124119;27;20415;-71
2022/01/19 06:28:31;;;;;;;149.40;32.45;;;;;;;;;;5121941;27;20027;-71
2022/01/19 06:30:57;;;;;;;177.98;35.88;;;;;;;;;;5124089;27;20039;-71
2022/01/19 06:33:23;;;;;;;129.07;34.72;;;1.40;99.90;;;;;;5123910;27;20043;-71
2022/01/19 06:35:49;;;;;;;118.53;34.85;;;;;;;;;;5117107;27;20487;-71
2022/01/19 06:38:15;;;;;;;161.05;37.05;;;1.60;99.90;;;;;;5111526;28;20043;-71
2022/01/19 06:40:42;;;;;;;140.75;37.90;;;1.30;99.90;;;;;;5093040;28;20042;-71
2022/01/19 06:43:10;;;;;;;143.50;38.03;;;1.70;99.90;;;;;;5111017;28;20103;-69
2022/01/19 06:45:35;;;;;;;144.95;42.95;;;1.80;99.90;;;;;;5127340;27;20495;-69
2022/01/19 06:48:01;;;;;;;145.20;43.78;;;1.60;99.90;;;;;;5110009;28;20086;-70
2022/01/19 06:50:31;;;;;;;157.93;50.05;;;1.90;99.90;;;;;;5109790;27;20056;-69
2022/01/19 06:52:57;;;;;;;136.77;48.83;;;;;;;;;;5108461;28;20050;-69
2022/01/19 06:55:23;;;;;;;154.15;54.83;;;2.10;99.90;;;;;;5108619;28;20425;-69
2022/01/19 06:57:49;;;;;;;158.02;54.47;;;2.30;99.90;;;;;;5108814;28;20462;-69
2022/01/19 07:00:16;;;;;;;159.95;57.95;;;1.60;99.90;;;;;;5119710;27;20042;-69
2022/01/19 07:02:42;;;;;;;143.52;53.97;;;3.40;99.90;;;;;;5109823;28;20047;-69
2022/01/19 07:05:08;;;;;;;125.28;52.58;;;1.90;99.90;;;;;;5110427;28;20081;-69
2022/01/19 07:07:34;;;;;;;116.95;51.08;;;;;;;;;;5109663;28;20526;-69
2022/01/19 07:10:00;;;;;;;126.45;52.28;;;;;;;;;;5110649;28;20040;-69
2022/01/19 07:12:29;;;;;;;125.93;53.15;;;;;;;;;;5108150;28;20060;-69
2022/01/19 07:14:55;;;;;;;122.63;52.95;;;;;;;;;;5109937;28;20043;-69
2022/01/19 07:17:21;;;;;;;112.45;50.20;;;2.50;99.90;;;;;;5108832;28;20044;-68
2022/01/19 07:19:47;;;;;;;132.80;59.92;;;2.40;99.90;;;;;;5122248;27;20043;-69
2022/01/19 07:22:15;;;;;;;115.93;52.85;;;;;;;;;;5131649;27;20588;-69
2022/01/19 07:24:42;;;;;;;128.35;61.78;;;2.60;99.90;;;;;;5111001;27;20040;-69
2022/01/19 07:27:08;;;;;;;112.60;56.63;;;;;;;;;;5108869;28;20031;-69
2022/01/19 07:29:34;;;;;;;119.55;58.78;;;;;;;;;;5108209;28;20055;-69
2022/01/19 07:32:03;;;;;;;120.90;61.80;;;;;;;;;;5108016;28;20049;-69
2022/01/19 07:34:29;;;;;;;109.63;58.35;;;2.30;99.90;;;;;;5108001;28;20043;-69
2022/01/19 07:36:57;;;;;;;102.72;58.05;;;;;;;;;;5106705;28;20100;-69
2022/01/19 07:39:23;;;;;;;98.13;56.58;;;2.90;99.90;;;;;;5108459;28;20201;-69
2022/01/19 07:41:50;;;;;;;88.15;51.88;;;;;;;;;;5109732;28;20111;-69
2022/01/19 07:44:16;;;;;;;88.75;53.15;;;3.10;99.90;;;;;;5110915;28;20050;-69
2022/01/19 07:46:42;;;;;;;86.45;52.88;;;3.30;99.90;;;;;;5109414;28;20395;-69
2022/01/19 07:49:08;;;;;;;87.25;54.50;;;;;;;;;;5111117;28;20035;-69
2022/01/19 07:51:34;;;;;;;88.03;52.90;;;2.90;99.90;;;;;;5108958;28;20137;-69
2022/01/19 07:54:01;;;;;;;86.03;52.38;;;2.90;99.90;;;;;;5092030;28;20544;-69
2022/01/19 07:56:27;;;;;;;84.78;51.72;;;;;;;;;;5108151;28;20055;-69
2022/01/19 07:58:53;;;;;;;84.65;52.88;;;;;;;;;;5107993;28;20039;-69
2022/01/19 08:01:19;;;;;;;78.72;49.75;;;2.00;99.90;;;;;;5108350;28;20126;-69
2022/01/19 08:03:45;;;;;;;80.05;49.00;;;;;;;;;;5091274;28;20038;-69
2022/01/19 08:06:11;;;;;;;82.47;51.47;;;;;;;;;;5109445;28;20046;-69
2022/01/19 08:08:37;;;;;;;83.65;51.58;;;3.30;99.90;;;;;;5109793;28;20044;-69
2022/01/19 08:11:03;;;;;;;75.32;52.28;;;3.10;99.90;;;;;;5108181;28;20051;-69
2022/01/19 08:13:29;;;;;;;76.57;52.28;;;;;;;;;;5109368;28;20128;-69
2022/01/19 08:15:55;;;;;;;76.38;51.58;;;3.30;99.90;;;;;;5108063;28;20047;-69
2022/01/19 08:18:22;;;;;;;81.88;52.47;;;;;;;;;;5118991;28;20558;-69
2022/01/19 08:20:47;;;;;;;80.28;51.08;;;3.30;99.90;;;;;;5107634;28;20112;-69
2022/01/19 08:23:13;;;;;;;78.03;53.42;;;3.00;99.90;;;;;;5109083;28;20089;-69
2022/01/19 08:25:39;;;;;;;86.57;50.58;;;3.20;99.90;;;;;;5109198;28;20063;-70
2022/01/19 08:28:04;;;;;;;82.43;52.33;;;3.20;99.90;;;;;;5107507;28;20497;-69
2022/01/19 08:30:30;;;;;;;76.07;50.88;;;3.30;99.90;;;;;;5108878;28;20040;-69
2022/01/19 08:32:57;;;;;;;85.95;53.05;;;3.50;99.90;;;;;;5110709;28;20452;-69
2022/01/19 08:35:23;;;;;;;81.80;52.15;;;;;;;;;;5112495;28;20032;-69
2022/01/19 08:37:49;;;;;;;84.53;54.13;;;3.30;99.90;;;;;;5110138;28;20391;-69
2022/01/19 08:40:15;;;;;;;79.88;52.70;;;3.40;99.90;;;;;;5112250;28;20380;-69
2022/01/19 08:42:42;;;;;;;86.35;53.47;;;3.30;99.90;;;;;;5113603;28;20069;-69
2022/01/19 08:45:09;;;;;;;80.03;52.15;;;3.50;99.90;;;;;;5111904;28;20043;-69
2022/01/19 08:47:37;;;;;;;81.53;51.22;;;3.60;99.90;;;;;;5112472;28;20118;-69
2022/01/19 08:50:05;;;;;;;90.35;52.50;;;3.30;99.90;;;;;;5113048;27;20057;-72
2022/01/19 08:52:31;;;;;;;85.57;52.97;;;;;;;;;;5094360;28;20431;-71
2022/01/19 08:54:58;;;;;;;82.00;52.72;;;;;;;;;;5113500;28;20051;-70
2022/01/19 08:57:25;;;;;;;82.18;51.30;;;;;;;;;;5113276;28;20058;-71
2022/01/19 08:59:50;;;;;;;85.90;51.55;;;3.40;99.90;;;;;;5111076;28;20071;-71
2022/01/19 09:02:18;;;;;;;82.68;52.40;;;3.50;99.90;;;;;;5111295;28;20074;-71
2022/01/19 09:04:44;;;;;;;83.32;51.10;;;;;;;;;;5111199;27;20511;-71
2022/01/19 09:07:09;;;;;;;83.88;51.75;;;4.00;99.90;;;;;;5112261;27;20130;-71
2022/01/19 09:09:35;;;;;;;92.13;53.08;;;;;;;;;;5112186;27;20122;-71
2022/01/19 09:12:01;;;;;;;89.07;52.50;;;3.50;99.90;;;;;;5111670;28;20055;-71
2022/01/19 09:14:27;;;;;;;86.97;51.78;;;3.60;99.90;;;;;;5111087;28;20475;-71
2022/01/19 09:16:52;;;;;;;86.40;52.55;;;3.40;99.90;;;;;;5110943;28;20122;-71
2022/01/19 09:19:20;;;;;;;82.88;51.03;;;3.80;99.90;;;;;;5118594;27;20067;-70
2022/01/19 09:21:47;;;;;;;87.03;53.30;;;3.70;99.90;;;;;;5112171;28;20487;-71
2022/01/19 09:24:13;;;;;;;86.15;51.78;;;;;;;;;;5111039;28;20075;-71
2022/01/19 09:26:39;;;;;;;90.78;52.55;;;4.10;99.90;;;;;;5112255;28;20047;-71
2022/01/19 09:29:05;;;;;;;86.60;52.65;;;3.40;99.90;;;;;;5111737;28;20042;-71
2022/01/19 09:31:33;;;;;;;89.55;53.08;;;;;;;;;;5111876;28;20078;-71
2022/01/19 09:34:08;;;;;;;85.45;53.13;;;3.70;99.90;;;;;;5111948;28;20093;-71
2022/01/19 09:36:43;;;;;;;99.68;53.42;;;3.90;99.90;;;;;;5111694;27;20057;-71
2022/01/19 09:39:10;;;;;;;90.20;51.03;;;;;;;;;;5109448;28;20027;-71
2022/01/19 09:41:37;;;;;;;86.88;51.45;;;4.00;99.90;;;;;;5110300;28;20342;-69
2022/01/19 09:44:03;;;;;;;83.18;51.15;;;3.90;99.90;;;;;;5110845;28;20031;-71
2022/01/19 09:46:29;;;;;;;89.75;52.22;;;4.30;99.90;;;;;;5110018;28;20086;-68
2022/01/19 09:48:58;;;;;;;89.88;52.58;;;3.80;99.90;;;;;;5109864;28;20054;-68
2022/01/19 09:51:24;;;;;;;91.32;54.00;;;;;;;;;;5110427;27;20051;-68
2022/01/19 09:53:50;;;;;;;89.85;51.33;;;3.80;99.90;;;;;;5111230;27;20395;-68
2022/01/19 09:56:19;;;;;;;91.88;53.53;;;3.70;99.90;;;;;;5112013;27;20047;-70
2022/01/19 09:58:45;;;;;;;94.88;54.22;;;4.50;99.90;;;;;;5109662;28;20090;-70
2022/01/19 10:01:10;;;;;;;93.13;52.40;;;3.80;99.90;;;;;;5113928;27;20070;-68
2022/01/19 10:03:36;;;;;;;102.13;56.10;;;4.00;99.90;;;;;;5111079;28;20482;-68
2022/01/19 10:06:09;;;;;;;100.30;54.78;;;3.90;99.90;;;;;;5109793;28;20042;-68
2022/01/19 10:08:48;;;;;;;108.60;57.05;;;4.20;99.90;;;;;;5111560;28;20043;-68
2022/01/19 10:11:27;;;;;;;100.45;55.95;;;3.80;99.90;;;;;;5119397;27;20455;-68
2022/01/19 10:17:02;;;;;;;112.30;57.42;;;4.10;99.90;;;;;;5111687;28;20039;-68
2022/01/19 10:19:43;;;;;;;114.07;60.10;;;4.00;99.90;;;;;;5112962;27;20392;-68
2022/01/19 10:22:26;;;;;;;113.30;58.67;;;4.10;99.90;;;;;;5109879;28;20066;-68
2022/01/19 10:25:01;;;;;;;121.70;61.17;;;4.20;99.90;;;;;;5093120;28;20502;-68
2022/01/19 10:27:42;;;;;;;118.47;60.47;;;4.20;99.90;;;;;;5108294;28;20537;-68
2022/01/19 10:30:15;;;;;;;126.72;63.75;;;4.20;99.90;;;;;;5110771;28;20075;-68
2022/01/19 10:32:46;;;;;;;123.35;63.03;;;4.30;99.90;;;;;;5092059;28;20460;-71
2022/01/19 10:35:29;;;;;;;124.15;62.58;;;4.20;99.90;;;;;;5108982;28;20054;-72
2022/01/19 10:38:17;;;;;;;133.88;62.97;;;3.80;99.90;;;;;;5091595;28;20050;-71
2022/01/19 10:41:04;;;;;;;137.52;63.22;;;3.80;99.90;;;;;;5109147;27;20078;-71
2022/01/19 10:43:34;;;;;;;141.35;63.13;;;4.20;99.90;;;;;;5109513;28;20403;-71
2022/01/19 10:46:30;;;;;;;138.82;63.88;;;4.20;99.90;;;;;;5110713;27;20036;-71
2022/01/19 10:49:07;;;;;;;131.68;64.13;;;4.00;99.90;;;;;;5102783;28;20488;-71
2022/01/19 10:51:46;;;;;;;142.02;64.93;;;4.00;99.90;;;;;;5110253;28;20491;-71
2022/01/19 10:54:13;;;;;;;150.13;67.80;;;;;;;;;;5108702;28;20094;-71
2022/01/19 10:56:43;;;;;;;150.52;67.43;;;4.50;99.90;;;;;;5106323;28;20431;-71
2022/01/19 10:59:11;;;;;;;149.20;67.13;;;4.10;99.90;;;;;;5108037;28;20127;-71
2022/01/19 11:01:52;;;;;;;154.93;67.70;;;5.10;99.90;;;;;;5108186;28;20052;-71
2022/01/19 11:04:33;;;;;;;151.35;65.93;;;4.30;99.90;;;;;;5109564;28;20054;-71
2022/01/19 11:07:09;;;;;;;160.90;68.32;;;4.40;99.90;;;;;;5108723;28;20542;-71
2022/01/19 11:10:08;;;;;;;166.95;69.40;;;4.10;99.90;;;;;;5109592;28;20077;-71
2022/01/19 11:12:32;;;;;;;171.23;71.47;;;4.90;99.90;;;;;;5107031;28;20130;-71
2022/01/19 11:14:58;;;;;;;162.52;69.85;;;3.90;99.90;;;;;;5109621;27;20088;-71
2022/01/19 11:17:24;;;;;;;168.07;68.53;;;;;;;;;;5110297;27;20048;-71
2022/01/19 11:19:50;;;;;;;164.20;69.93;;;4.20;99.90;;;;;;5108671;28;20032;-71
2022/01/19 11:22:26;;;;;;;172.05;70.07;;;4.00;99.90;;;;;;5109010;28;20036;-71
2022/01/19 11:25:17;;;;;;;164.70;68.70;;;4.00;99.90;;;;;;5091236;28;20093;-71
2022/01/19 11:27:47;;;;;;;170.77;67.82;;;3.80;99.90;;;;;;5110052;28;20049;-71
2022/01/19 11:30:19;;;;;;;158.57;66.72;;;4.60;99.90;;;;;;5109732;28;20036;-71
2022/01/19 11:33:05;;;;;;;163.18;66.65;;;4.30;99.90;;;;;;5119532;27;20035;-71
2022/01/19 11:35:33;;;;;;;155.93;65.97;;;4.50;99.90;;;;;;5110217;28;20032;-71
2022/01/19 11:37:59;;;;;;;160.98;67.07;;;;;;;;;;5108161;28;20100;-71
2022/01/19 11:40:36;;;;;;;155.50;64.82;;;4.40;99.90;;;;;;5105932;28;20032;-71
2022/01/19 11:43:26;;;;;;;149.05;66.50;;;4.10;99.90;;;;;;5110520;28;20058;-71
2022/01/19 11:45:53;;;;;;;150.32;66.18;;;4.30;99.90;;;;;;5111254;28;20058;-71
2022/01/19 11:48:21;;;;;;;163.73;67.63;;;3.70;99.90;;;;;;5110471;28;20119;-71
2022/01/19 11:50:49;;;;;;;158.77;67.22;;;4.40;99.90;;;;;;5106405;28;20403;-71
2022/01/19 11:53:17;;;;;;;150.95;66.68;;;;;;;;;;5089050;28;20475;-71
2022/01/19 11:56:11;;;;;;;157.48;68.25;;;4.30;99.90;;;;;;5088769;28;20040;-71
2022/01/19 11:58:37;;;;;;;160.30;67.10;;;;;;;;;;5088707;28;20071;-71
2022/01/19 12:01:22;;;;;;;162.10;69.00;;;4.00;99.90;;;;;;5088694;28;20055;-71
2022/01/19 12:03:48;;;;;;;166.98;69.32;;;4.10;99.90;;;;;;5095832;28;20436;-71
2022/01/19 12:06:30;;;;;;;167.77;68.10;;;4.40;99.90;;;;;;5109686;28;20043;-71
2022/01/19 12:08:56;;;;;;;172.93;70.57;;;4.10;99.90;;;;;;5097855;28;20031;-71
2022/01/19 12:11:23;;;;;;;168.25;69.80;;;4.00;99.90;;;;;;5091537;28;20055;-71
2022/01/19 12:14:21;;;;;;;164.32;68.65;;;3.80;99.90;;;;;;5110579;28;20035;-71
2022/01/19 12:16:59;;;;;;;177.15;71.32;;;4.00;99.90;;;;;;5109548;27;20055;-71
2022/01/19 12:19:28;;;;;;;171.75;70.43;;;4.10;99.90;;;;;;5112642;27;20047;-71
2022/01/19 12:22:06;;;;;;;161.75;69.88;;;4.20;99.90;;;;;;5111870;28;20073;-71
2022/01/19 12:24:44;;;;;;;180.07;72.80;;;4.00;99.90;;;;;;5109390;28;20097;-71
2022/01/19 12:27:13;;;;;;;168.43;71.45;;;4.30;99.90;;;;;;5111484;28;20040;-71
2022/01/19 12:29:46;;;;;;;167.30;72.00;;;4.50;99.90;;;;;;5112076;27;20468;-71
2022/01/19 12:32:18;;;;;;;167.63;70.47;;;4.10;99.90;;;;;;5123095;27;20066;-72
2022/01/19 12:35:15;;;;;;;168.23;70.60;;;4.90;99.90;;;;;;5112801;28;20039;-72
2022/01/19 12:37:54;;;;;;;152.13;67.63;;;4.10;99.90;;;;;;5105862;28;20090;-71
2022/01/19 12:40:33;;;;;;;148.32;67.80;;;3.90;99.90;;;;;;5111266;28;20540;-71
2022/01/19 12:43:09;;;;;;;152.38;67.55;;;4.30;99.90;;;;;;5111215;28;20040;-72
2022/01/19 12:45:48;;;;;;;158.73;68.82;;;4.50;99.90;;;;;;5112759;27;20055;-72
2022/01/19 12:48:31;;;;;;;145.15;66.43;;;4.30;99.90;;;;;;5111265;28;20150;-72
2022/01/19 12:50:57;;;;;;;140.95;65.03;;;;;;;;;;5111820;28;20432;-72
2022/01/19 12:53:25;;;;;;;137.82;66.07;;;4.30;99.90;;;;;;5112202;28;20403;-72
2022/01/19 12:55:55;;;;;;;140.52;66.10;;;4.70;99.90;;;;;;5110991;28;20092;-72
2022/01/19 12:58:25;;;;;;;145.65;66.75;;;4.30;99.90;;;;;;5112494;27;20044;-72
2022/01/19 13:00:54;;;;;;;136.32;66.28;;;4.50;99.90;;;;;;5111330;27;20044;-72
2022/01/19 13:03:27;;;;;;;132.90;64.82;;;4.50;99.90;;;;;;5112223;28;20145;-71
2022/01/19 13:05:58;;;;;;;139.88;66.97;;;4.50;99.90;;;;;;5112448;28;20097;-72
2022/01/19 13:08:34;;;;;;;143.50;66.60;;;4.50;99.90;;;;;;5094265;28;20081;-71
2022/01/19 13:11:07;;;;;;;;;;;4.30;99.90;;;;;;5094504;28;20546;-72
2022/01/19 13:13:57;;;;;;;144.52;68.20;;;4.50;99.90;;;;;;5110730;28;19926;-69
2022/01/19 13:16:40;;;;;;;147.13;67.70;;;4.50;99.90;;;;;;5113495;27;20528;-69
2022/01/19 13:19:18;;;;;;;154.90;69.47;;;4.40;99.90;;;;;;5112025;28;20048;-69
2022/01/19 13:21:48;;;;;;;148.38;68.72;;;4.40;99.90;;;;;;5110685;28;20035;-69
2022/01/19 13:24:27;;;;;;;149.10;68.68;;;4.40;99.90;;;;;;5112184;28;20113;-69
2022/01/19 13:26:57;;;;;;;137.80;67.60;;;4.50;99.90;;;;;;5110292;28;20047;-69
2022/01/19 13:29:33;;;;;;;141.63;68.10;;;4.50;99.90;;;;;;5110856;28;20039;-69
2022/01/19 13:32:19;;;;;;;137.63;65.75;;;4.50;99.90;;;;;;5111567;28;20514;-69
2022/01/19 13:35:01;;;;;;;137.45;66.13;;;4.40;99.90;;;;;;5110583;28;20043;-69
2022/01/19 13:37:34;;;;;;;142.07;66.40;;;4.60;99.90;;;;;;5110014;28;20066;-69
2022/01/19 13:40:31;;;;;;;135.52;63.03;;;4.60;99.90;;;;;;5110097;28;20094;-69
2022/01/19 13:43:03;;;;;;;142.98;66.47;;;4.50;99.90;;;;;;5101425;27;20133;-69
2022/01/19 13:45:38;;;;;;;139.38;66.85;;;4.70;99.90;;;;;;5111868;28;20047;-69
2022/01/19 13:50:45;;;;;;;128.63;63.53;;;4.70;99.90;;;;;;5111583;28;20044;-69
2022/01/19 13:53:11;;;;;;;126.88;64.22;;;;;;;;;;5110628;27;20039;-69
2022/01/19 13:55:37;;;;;;;128.55;62.65;;;;;;;;;;5111411;28;20554;-69
2022/01/19 13:58:11;;;;;;;129.73;62.25;;;4.60;99.90;;;;;;5111026;28;20448;-69
2022/01/19 14:00:52;;;;;;;117.13;60.33;;;4.90;99.90;;;;;;5109701;28;20075;-68
2022/01/19 14:03:21;;;;;;;117.30;59.30;;;4.60;99.90;;;;;;5109668;28;20040;-69
2022/01/19 14:05:51;;;;;;;122.80;61.47;;;4.90;99.90;;;;;;5109340;28;20552;-69
2022/01/19 14:08:28;;;;;;;126.25;61.50;;;4.80;99.90;;;;;;5110931;27;20048;-69
2022/01/19 14:10:54;;;;;;;117.40;60.92;;;;;;;;;;5108550;28;20447;-69
2022/01/19 14:13:34;;;;;;;113.15;59.53;;;4.70;99.90;;;;;;5109548;28;20130;-69
2022/01/19 14:16:20;;;;;;;114.20;59.65;;;4.60;99.90;;;;;;5110230;28;20036;-68
2022/01/19 14:19:17;;;;;;;117.35;61.10;;;4.80;99.90;;;;;;5111720;28;20387;-68
2022/01/19 14:22:04;;;;;;;111.22;58.30;;;4.30;99.90;;;;;;5110233;27;20044;-69
2022/01/19 14:24:44;;;;;;;110.32;57.03;;;4.70;99.90;;;;;;5109512;28;20043;-69
2022/01/19 14:27:11;;;;;;;106.55;57.58;;;4.40;99.90;;;;;;5110970;28;20039;-68
2022/01/19 14:29:59;;;;;;;109.03;56.95;;;4.90;99.90;;;;;;5112160;27;20054;-71
2022/01/19 14:32:43;;;;;;;118.93;58.90;;;4.90;99.90;;;;;;5094114;28;20055;-71